sensor_id;sensor_type;location;lat;lon;timestamp;P1;durP1;ratioP1;P2;durP2;ratioP2
46282;SDS011;32017;43.700;11.820;2023-02-21T00:00:00;21.38;;;19.40;;
46282;SDS011;32017;43.700;11.820;2023-02-21T00:02:38;20.35;;;18.17;;
46282;SDS011;32017;43.700;11.820;2023-02-21T00:05:17;23.20;;;20.80;;
46282;SDS011;32017;43.700;11.820;2023-02-21T00:07:56;20.67;;;18.77;;
46282;SDS011;32017;43.700;11.820;2023-02-21T00:10:34;21.05;;;19.00;;
46282;SDS011;32017;43.700;11.820;2023-02-21T00:13:12;21.05;;;18.17;;
46282;SDS011;32017;43.700;11.820;2023-02-21T00:15:51;17.45;;;15.75;;
46282;SDS011;32017;43.700;11.820;2023-02-21T00:18:35;14.93;;;13.88;;
46282;SDS011;32017;43.700;11.820;2023-02-21T00:21:15;17.83;;;16.33;;
46282;SDS011;32017;43.700;11.820;2023-02-21T00:23:54;26.63;;;21.40;;
46282;SDS011;32017;43.700;11.820;2023-02-21T00:26:32;27.55;;;23.08;;
46282;SDS011;32017;43.700;11.820;2023-02-21T00:29:10;27.23;;;21.23;;
46282;SDS011;32017;43.700;11.820;2023-02-21T00:31:50;23.20;;;20.75;;
46282;SDS011;32017;43.700;11.820;2023-02-21T00:34:30;21.67;;;19.55;;
46282;SDS011;32017;43.700;11.820;2023-02-21T00:37:08;18.88;;;17.20;;
46282;SDS011;32017;43.700;11.820;2023-02-21T00:39:46;19.58;;;17.80;;
46282;SDS011;32017;43.700;11.820;2023-02-21T00:42:24;22.50;;;20.05;;
46282;SDS011;32017;43.700;11.820;2023-02-21T00:45:03;19.45;;;17.83;;
46282;SDS011;32017;43.700;11.820;2023-02-21T00:47:43;18.27;;;16.42;;
46282;SDS011;32017;43.700;11.820;2023-02-21T00:50:22;19.27;;;17.05;;
46282;SDS011;32017;43.700;11.820;2023-02-21T00:53:00;17.63;;;15.50;;
46282;SDS011;32017;43.700;11.820;2023-02-21T00:55:39;17.48;;;16.08;;
46282;SDS011;32017;43.700;11.820;2023-02-21T00:58:19;20.15;;;18.20;;
46282;SDS011;32017;43.700;11.820;2023-02-21T01:00:58;19.73;;;18.13;;
46282;SDS011;32017;43.700;11.820;2023-02-21T01:03:37;18.23;;;16.55;;
46282;SDS011;32017;43.700;11.820;2023-02-21T01:06:16;21.55;;;19.45;;
46282;SDS011;32017;43.700;11.820;2023-02-21T01:08:54;21.85;;;19.52;;
46282;SDS011;32017;43.700;11.820;2023-02-21T01:11:32;22.13;;;19.92;;
46282;SDS011;32017;43.700;11.820;2023-02-21T01:14:11;20.23;;;18.38;;
46282;SDS011;32017;43.700;11.820;2023-02-21T01:16:49;21.48;;;19.63;;
46282;SDS011;32017;43.700;11.820;2023-02-21T01:19:32;21.73;;;19.90;;
46282;SDS011;32017;43.700;11.820;2023-02-21T01:22:12;21.52;;;19.35;;
46282;SDS011;32017;43.700;11.820;2023-02-21T01:24:50;20.85;;;19.05;;
46282;SDS011;32017;43.700;11.820;2023-02-21T01:27:29;19.30;;;17.48;;
46282;SDS011;32017;43.700;11.820;2023-02-21T01:30:07;19.92;;;18.17;;
46282;SDS011;32017;43.700;11.820;2023-02-21T01:32:46;22.40;;;19.23;;
46282;SDS011;32017;43.700;11.820;2023-02-21T01:35:25;20.10;;;18.23;;
46282;SDS011;32017;43.700;11.820;2023-02-21T01:38:03;21.20;;;19.08;;
46282;SDS011;32017;43.700;11.820;2023-02-21T01:40:41;22.20;;;19.90;;
46282;SDS011;32017;43.700;11.820;2023-02-21T01:43:22;20.65;;;17.98;;
46282;SDS011;32017;43.700;11.820;2023-02-21T01:46:03;22.27;;;20.10;;
46282;SDS011;32017;43.700;11.820;2023-02-21T01:48:42;20.80;;;18.83;;
46282;SDS011;32017;43.700;11.820;2023-02-21T01:51:23;20.40;;;18.45;;
46282;SDS011;32017;43.700;11.820;2023-02-21T01:54:05;19.48;;;17.70;;
46282;SDS011;32017;43.700;11.820;2023-02-21T01:56:45;20.15;;;18.15;;
46282;SDS011;32017;43.700;11.820;2023-02-21T01:59:24;20.95;;;18.90;;
46282;SDS011;32017;43.700;11.820;2023-02-21T02:02:25;20.45;;;18.13;;
46282;SDS011;32017;43.700;11.820;2023-02-21T02:05:13;24.13;;;18.85;;
46282;SDS011;32017;43.700;11.820;2023-02-21T02:07:53;22.70;;;20.20;;
46282;SDS011;32017;43.700;11.820;2023-02-21T02:10:32;21.08;;;19.15;;
46282;SDS011;32017;43.700;11.820;2023-02-21T02:15:56;21.13;;;17.55;;
46282;SDS011;32017;43.700;11.820;2023-02-21T02:30:13;17.95;;;16.48;;
46282;SDS011;32017;43.700;11.820;2023-02-21T02:45:27;19.52;;;17.70;;
46282;SDS011;32017;43.700;11.820;2023-02-21T02:47:45;17.63;;;16.23;;
46282;SDS011;32017;43.700;11.820;2023-02-21T02:50:12;19.38;;;17.85;;
46282;SDS011;32017;43.700;11.820;2023-02-21T02:52:35;19.92;;;17.92;;
46282;SDS011;32017;43.700;11.820;2023-02-21T02:55:01;17.80;;;16.67;;
46282;SDS011;32017;43.700;11.820;2023-02-21T02:57:43;16.42;;;15.05;;
46282;SDS011;32017;43.700;11.820;2023-02-21T03:00:06;17.65;;;16.02;;
46282;SDS011;32017;43.700;11.820;2023-02-21T03:07:47;14.55;;;13.65;;
46282;SDS011;32017;43.700;11.820;2023-02-21T03:10:20;15.38;;;14.15;;
46282;SDS011;32017;43.700;11.820;2023-02-21T03:17:52;18.85;;;16.70;;
46282;SDS011;32017;43.700;11.820;2023-02-21T03:20:19;18.95;;;17.13;;
46282;SDS011;32017;43.700;11.820;2023-02-21T03:22:42;19.90;;;18.25;;
46282;SDS011;32017;43.700;11.820;2023-02-21T03:25:04;20.02;;;17.95;;
46282;SDS011;32017;43.700;11.820;2023-02-21T03:27:26;18.73;;;17.23;;
46282;SDS011;32017;43.700;11.820;2023-02-21T03:29:48;19.88;;;17.92;;
46282;SDS011;32017;43.700;11.820;2023-02-21T03:34:58;18.55;;;17.00;;
46282;SDS011;32017;43.700;11.820;2023-02-21T03:37:28;19.17;;;17.23;;
46282;SDS011;32017;43.700;11.820;2023-02-21T03:39:53;18.42;;;17.15;;
46282;SDS011;32017;43.700;11.820;2023-02-21T03:42:13;18.00;;;16.42;;
46282;SDS011;32017;43.700;11.820;2023-02-21T03:44:33;17.83;;;16.45;;
46282;SDS011;32017;43.700;11.820;2023-02-21T03:46:53;15.68;;;14.57;;
46282;SDS011;32017;43.700;11.820;2023-02-21T03:49:13;16.83;;;15.57;;
46282;SDS011;32017;43.700;11.820;2023-02-21T03:51:33;15.73;;;14.73;;
46282;SDS011;32017;43.700;11.820;2023-02-21T03:53:53;17.17;;;15.98;;
46282;SDS011;32017;43.700;11.820;2023-02-21T03:56:14;17.17;;;15.75;;
46282;SDS011;32017;43.700;11.820;2023-02-21T03:58:34;15.90;;;14.90;;
46282;SDS011;32017;43.700;11.820;2023-02-21T04:00:57;17.80;;;16.52;;
46282;SDS011;32017;43.700;11.820;2023-02-21T04:03:17;18.13;;;16.52;;
46282;SDS011;32017;43.700;11.820;2023-02-21T04:05:37;16.42;;;15.25;;
46282;SDS011;32017;43.700;11.820;2023-02-21T04:07:57;16.92;;;15.88;;
46282;SDS011;32017;43.700;11.820;2023-02-21T04:10:17;17.25;;;15.82;;
46282;SDS011;32017;43.700;11.820;2023-02-21T04:12:37;17.88;;;16.33;;
46282;SDS011;32017;43.700;11.820;2023-02-21T04:14:58;17.52;;;16.10;;
46282;SDS011;32017;43.700;11.820;2023-02-21T04:17:18;15.00;;;13.85;;
46282;SDS011;32017;43.700;11.820;2023-02-21T04:19:38;17.10;;;15.60;;
46282;SDS011;32017;43.700;11.820;2023-02-21T04:21:58;16.33;;;15.30;;
46282;SDS011;32017;43.700;11.820;2023-02-21T04:24:18;17.48;;;16.27;;
46282;SDS011;32017;43.700;11.820;2023-02-21T04:26:38;16.80;;;15.63;;
46282;SDS011;32017;43.700;11.820;2023-02-21T04:28:57;16.55;;;15.40;;
46282;SDS011;32017;43.700;11.820;2023-02-21T04:31:17;26.58;;;18.95;;
46282;SDS011;32017;43.700;11.820;2023-02-21T04:33:37;26.13;;;20.92;;
46282;SDS011;32017;43.700;11.820;2023-02-21T04:35:57;27.60;;;19.90;;
46282;SDS011;32017;43.700;11.820;2023-02-21T04:38:17;17.70;;;15.93;;
46282;SDS011;32017;43.700;11.820;2023-02-21T04:40:39;18.92;;;17.00;;
46282;SDS011;32017;43.700;11.820;2023-02-21T04:42:59;16.05;;;14.73;;
46282;SDS011;32017;43.700;11.820;2023-02-21T04:45:20;16.33;;;15.02;;
46282;SDS011;32017;43.700;11.820;2023-02-21T04:47:40;19.90;;;17.33;;
46282;SDS011;32017;43.700;11.820;2023-02-21T04:50:00;21.92;;;19.83;;
46282;SDS011;32017;43.700;11.820;2023-02-21T04:52:20;22.48;;;20.17;;
46282;SDS011;32017;43.700;11.820;2023-02-21T04:54:40;30.92;;;24.00;;
46282;SDS011;32017;43.700;11.820;2023-02-21T04:57:00;24.13;;;21.67;;
46282;SDS011;32017;43.700;11.820;2023-02-21T04:59:20;23.20;;;20.95;;
46282;SDS011;32017;43.700;11.820;2023-02-21T05:01:40;20.73;;;18.70;;
46282;SDS011;32017;43.700;11.820;2023-02-21T05:04:00;21.17;;;19.20;;
46282;SDS011;32017;43.700;11.820;2023-02-21T05:06:21;19.75;;;18.02;;
46282;SDS011;32017;43.700;11.820;2023-02-21T05:08:42;18.15;;;16.75;;
46282;SDS011;32017;43.700;11.820;2023-02-21T05:11:02;19.38;;;17.60;;
46282;SDS011;32017;43.700;11.820;2023-02-21T05:13:22;19.17;;;17.33;;
46282;SDS011;32017;43.700;11.820;2023-02-21T05:15:42;20.35;;;18.23;;
46282;SDS011;32017;43.700;11.820;2023-02-21T05:18:02;18.30;;;16.75;;
46282;SDS011;32017;43.700;11.820;2023-02-21T05:20:22;20.27;;;18.42;;
46282;SDS011;32017;43.700;11.820;2023-02-21T05:22:42;19.23;;;17.25;;
46282;SDS011;32017;43.700;11.820;2023-02-21T05:25:02;19.40;;;17.80;;
46282;SDS011;32017;43.700;11.820;2023-02-21T05:27:28;20.40;;;18.17;;
46282;SDS011;32017;43.700;11.820;2023-02-21T05:29:49;18.70;;;16.90;;
46282;SDS011;32017;43.700;11.820;2023-02-21T05:32:10;17.92;;;16.27;;
46282;SDS011;32017;43.700;11.820;2023-02-21T05:34:30;19.70;;;18.10;;
46282;SDS011;32017;43.700;11.820;2023-02-21T05:36:50;18.13;;;16.25;;
46282;SDS011;32017;43.700;11.820;2023-02-21T05:39:10;21.00;;;19.15;;
46282;SDS011;32017;43.700;11.820;2023-02-21T05:41:30;18.75;;;17.25;;
46282;SDS011;32017;43.700;11.820;2023-02-21T05:43:50;20.10;;;18.10;;
46282;SDS011;32017;43.700;11.820;2023-02-21T05:46:23;20.13;;;18.50;;
46282;SDS011;32017;43.700;11.820;2023-02-21T05:48:45;21.42;;;19.33;;
46282;SDS011;32017;43.700;11.820;2023-02-21T05:51:05;21.60;;;19.67;;
46282;SDS011;32017;43.700;11.820;2023-02-21T05:53:25;20.10;;;18.23;;
46282;SDS011;32017;43.700;11.820;2023-02-21T05:55:46;22.70;;;18.55;;
46282;SDS011;32017;43.700;11.820;2023-02-21T05:58:06;19.65;;;17.83;;
46282;SDS011;32017;43.700;11.820;2023-02-21T06:00:26;19.63;;;17.83;;
46282;SDS011;32017;43.700;11.820;2023-02-21T06:02:48;19.47;;;17.87;;
46282;SDS011;32017;43.700;11.820;2023-02-21T06:05:12;19.02;;;17.63;;
46282;SDS011;32017;43.700;11.820;2023-02-21T06:07:32;18.33;;;16.85;;
46282;SDS011;32017;43.700;11.820;2023-02-21T06:09:52;19.48;;;17.92;;
46282;SDS011;32017;43.700;11.820;2023-02-21T06:12:12;20.50;;;18.45;;
46282;SDS011;32017;43.700;11.820;2023-02-21T06:14:32;19.10;;;17.52;;
46282;SDS011;32017;43.700;11.820;2023-02-21T06:16:52;17.88;;;16.52;;
46282;SDS011;32017;43.700;11.820;2023-02-21T06:19:13;19.50;;;17.65;;
46282;SDS011;32017;43.700;11.820;2023-02-21T06:21:37;16.40;;;15.07;;
46282;SDS011;32017;43.700;11.820;2023-02-21T06:23:59;17.02;;;15.40;;
46282;SDS011;32017;43.700;11.820;2023-02-21T06:26:21;16.88;;;15.65;;
46282;SDS011;32017;43.700;11.820;2023-02-21T06:28:41;16.88;;;15.43;;
46282;SDS011;32017;43.700;11.820;2023-02-21T06:31:02;15.75;;;14.85;;
46282;SDS011;32017;43.700;11.820;2023-02-21T06:33:23;15.90;;;14.63;;
46282;SDS011;32017;43.700;11.820;2023-02-21T06:35:44;16.90;;;15.48;;
46282;SDS011;32017;43.700;11.820;2023-02-21T06:38:04;37.47;;;27.05;;
46282;SDS011;32017;43.700;11.820;2023-02-21T06:40:24;20.00;;;18.35;;
46282;SDS011;32017;43.700;11.820;2023-02-21T06:42:47;19.52;;;17.90;;
46282;SDS011;32017;43.700;11.820;2023-02-21T06:45:07;17.58;;;16.23;;
46282;SDS011;32017;43.700;11.820;2023-02-21T06:47:28;18.42;;;16.52;;
46282;SDS011;32017;43.700;11.820;2023-02-21T06:49:47;16.98;;;15.32;;
46282;SDS011;32017;43.700;11.820;2023-02-21T06:52:08;19.48;;;17.77;;
46282;SDS011;32017;43.700;11.820;2023-02-21T06:54:28;18.08;;;16.50;;
46282;SDS011;32017;43.700;11.820;2023-02-21T06:56:49;25.10;;;22.75;;
46282;SDS011;32017;43.700;11.820;2023-02-21T06:59:09;24.95;;;22.38;;
46282;SDS011;32017;43.700;11.820;2023-02-21T07:01:30;27.17;;;24.35;;
46282;SDS011;32017;43.700;11.820;2023-02-21T07:03:51;31.40;;;24.23;;
46282;SDS011;32017;43.700;11.820;2023-02-21T07:06:12;24.95;;;22.45;;
46282;SDS011;32017;43.700;11.820;2023-02-21T07:08:32;24.30;;;21.95;;
46282;SDS011;32017;43.700;11.820;2023-02-21T07:10:53;23.08;;;20.73;;
46282;SDS011;32017;43.700;11.820;2023-02-21T07:13:13;23.90;;;21.67;;
46282;SDS011;32017;43.700;11.820;2023-02-21T07:15:33;25.83;;;20.98;;
46282;SDS011;32017;43.700;11.820;2023-02-21T07:17:53;22.70;;;20.55;;
46282;SDS011;32017;43.700;11.820;2023-02-21T07:20:13;21.73;;;19.45;;
46282;SDS011;32017;43.700;11.820;2023-02-21T07:22:35;20.95;;;18.88;;
46282;SDS011;32017;43.700;11.820;2023-02-21T07:24:55;22.98;;;19.80;;
46282;SDS011;32017;43.700;11.820;2023-02-21T07:27:18;58.55;;;39.35;;
46282;SDS011;32017;43.700;11.820;2023-02-21T07:29:38;21.05;;;18.98;;
46282;SDS011;32017;43.700;11.820;2023-02-21T07:31:59;24.88;;;22.33;;
46282;SDS011;32017;43.700;11.820;2023-02-21T07:34:19;23.10;;;20.90;;
46282;SDS011;32017;43.700;11.820;2023-02-21T07:36:41;26.20;;;23.52;;
46282;SDS011;32017;43.700;11.820;2023-02-21T07:39:01;26.63;;;22.52;;
46282;SDS011;32017;43.700;11.820;2023-02-21T07:41:21;23.85;;;21.23;;
46282;SDS011;32017;43.700;11.820;2023-02-21T07:43:42;26.27;;;23.60;;
46282;SDS011;32017;43.700;11.820;2023-02-21T07:46:02;26.73;;;24.00;;
46282;SDS011;32017;43.700;11.820;2023-02-21T07:48:22;27.00;;;24.67;;
46282;SDS011;32017;43.700;11.820;2023-02-21T07:50:43;26.20;;;23.60;;
46282;SDS011;32017;43.700;11.820;2023-02-21T07:53:03;27.05;;;22.65;;
46282;SDS011;32017;43.700;11.820;2023-02-21T07:55:24;27.33;;;24.73;;
46282;SDS011;32017;43.700;11.820;2023-02-21T07:57:45;25.30;;;22.90;;
46282;SDS011;32017;43.700;11.820;2023-02-21T19:30:50;24.40;;;21.88;;
46282;SDS011;32017;43.700;11.820;2023-02-21T19:33:10;22.45;;;20.58;;
46282;SDS011;32017;43.700;11.820;2023-02-21T19:35:31;22.52;;;20.38;;
46282;SDS011;32017;43.700;11.820;2023-02-21T19:37:52;21.52;;;19.45;;
46282;SDS011;32017;43.700;11.820;2023-02-21T19:40:12;23.15;;;20.88;;
46282;SDS011;32017;43.700;11.820;2023-02-21T19:42:32;23.50;;;20.65;;
46282;SDS011;32017;43.700;11.820;2023-02-21T19:44:53;28.08;;;23.13;;
46282;SDS011;32017;43.700;11.820;2023-02-21T19:47:15;28.13;;;25.13;;
46282;SDS011;32017;43.700;11.820;2023-02-21T19:49:34;25.45;;;22.73;;
46282;SDS011;32017;43.700;11.820;2023-02-21T19:51:56;24.70;;;22.17;;
46282;SDS011;32017;43.700;11.820;2023-02-21T19:56:41;25.30;;;22.77;;
46282;SDS011;32017;43.700;11.820;2023-02-21T19:59:01;24.33;;;22.13;;
46282;SDS011;32017;43.700;11.820;2023-02-21T20:01:21;21.98;;;20.08;;
46282;SDS011;32017;43.700;11.820;2023-02-21T20:03:45;23.05;;;20.90;;
46282;SDS011;32017;43.700;11.820;2023-02-21T20:06:09;21.25;;;19.38;;
46282;SDS011;32017;43.700;11.820;2023-02-21T20:08:29;21.95;;;20.05;;
46282;SDS011;32017;43.700;11.820;2023-02-21T20:10:50;21.65;;;19.88;;
46282;SDS011;32017;43.700;11.820;2023-02-21T20:13:10;22.98;;;20.77;;
46282;SDS011;32017;43.700;11.820;2023-02-21T20:15:29;21.90;;;19.50;;
46282;SDS011;32017;43.700;11.820;2023-02-21T20:17:50;21.05;;;19.05;;
46282;SDS011;32017;43.700;11.820;2023-02-21T20:20:12;23.00;;;21.00;;
46282;SDS011;32017;43.700;11.820;2023-02-21T20:22:36;23.23;;;21.25;;
46282;SDS011;32017;43.700;11.820;2023-02-21T20:24:56;30.08;;;27.33;;
46282;SDS011;32017;43.700;11.820;2023-02-21T20:27:16;25.67;;;22.90;;
46282;SDS011;32017;43.700;11.820;2023-02-21T20:29:36;30.42;;;27.30;;
46282;SDS011;32017;43.700;11.820;2023-02-21T20:31:58;29.02;;;25.58;;
46282;SDS011;32017;43.700;11.820;2023-02-21T20:34:19;24.52;;;22.27;;
46282;SDS011;32017;43.700;11.820;2023-02-21T20:36:41;24.42;;;21.98;;
46282;SDS011;32017;43.700;11.820;2023-02-21T20:39:04;23.35;;;20.63;;
46282;SDS011;32017;43.700;11.820;2023-02-21T20:41:29;24.17;;;22.20;;
46282;SDS011;32017;43.700;11.820;2023-02-21T20:43:50;23.95;;;21.70;;
46282;SDS011;32017;43.700;11.820;2023-02-21T20:46:10;27.20;;;23.63;;
46282;SDS011;32017;43.700;11.820;2023-02-21T20:48:30;29.38;;;26.20;;
46282;SDS011;32017;43.700;11.820;2023-02-21T20:50:50;29.73;;;26.88;;
46282;SDS011;32017;43.700;11.820;2023-02-21T20:53:12;36.03;;;30.85;;
46282;SDS011;32017;43.700;11.820;2023-02-21T20:55:35;25.92;;;23.20;;
46282;SDS011;32017;43.700;11.820;2023-02-21T20:57:55;28.67;;;25.63;;
46282;SDS011;32017;43.700;11.820;2023-02-21T21:00:15;30.77;;;24.67;;
46282;SDS011;32017;43.700;11.820;2023-02-21T21:02:37;26.52;;;23.90;;
46282;SDS011;32017;43.700;11.820;2023-02-21T21:04:57;24.85;;;21.80;;
46282;SDS011;32017;43.700;11.820;2023-02-21T21:07:18;29.98;;;26.92;;
46282;SDS011;32017;43.700;11.820;2023-02-21T21:09:40;33.85;;;28.90;;
46282;SDS011;32017;43.700;11.820;2023-02-21T21:12:07;30.55;;;27.30;;
46282;SDS011;32017;43.700;11.820;2023-02-21T21:14:30;32.50;;;29.00;;
46282;SDS011;32017;43.700;11.820;2023-02-21T21:16:52;45.92;;;33.90;;
46282;SDS011;32017;43.700;11.820;2023-02-21T21:19:14;43.55;;;30.83;;
46282;SDS011;32017;43.700;11.820;2023-02-21T21:21:34;47.90;;;33.85;;
46282;SDS011;32017;43.700;11.820;2023-02-21T21:23:55;37.33;;;31.13;;
46282;SDS011;32017;43.700;11.820;2023-02-21T21:26:17;39.17;;;32.55;;
46282;SDS011;32017;43.700;11.820;2023-02-21T21:28:37;35.78;;;27.83;;
46282;SDS011;32017;43.700;11.820;2023-02-21T21:30:58;27.92;;;25.13;;
46282;SDS011;32017;43.700;11.820;2023-02-21T21:33:18;38.10;;;30.00;;
46282;SDS011;32017;43.700;11.820;2023-02-21T21:35:40;40.70;;;33.97;;
46282;SDS011;32017;43.700;11.820;2023-02-21T21:37:59;39.08;;;32.30;;
46282;SDS011;32017;43.700;11.820;2023-02-21T21:40:21;43.25;;;34.40;;
46282;SDS011;32017;43.700;11.820;2023-02-21T21:42:43;41.97;;;34.05;;
46282;SDS011;32017;43.700;11.820;2023-02-21T21:45:09;33.95;;;29.40;;
46282;SDS011;32017;43.700;11.820;2023-02-21T21:47:36;35.53;;;28.98;;
46282;SDS011;32017;43.700;11.820;2023-02-21T21:49:56;33.83;;;28.20;;
46282;SDS011;32017;43.700;11.820;2023-02-21T21:52:17;34.13;;;28.35;;
46282;SDS011;32017;43.700;11.820;2023-02-21T21:54:38;33.67;;;26.92;;
46282;SDS011;32017;43.700;11.820;2023-02-21T21:57:03;29.58;;;26.45;;
46282;SDS011;32017;43.700;11.820;2023-02-21T21:59:23;29.38;;;26.40;;
46282;SDS011;32017;43.700;11.820;2023-02-21T22:01:47;30.70;;;27.45;;
46282;SDS011;32017;43.700;11.820;2023-02-21T22:04:07;31.55;;;28.48;;
46282;SDS011;32017;43.700;11.820;2023-02-21T22:06:28;34.90;;;29.85;;
46282;SDS011;32017;43.700;11.820;2023-02-21T22:08:48;31.30;;;27.95;;
46282;SDS011;32017;43.700;11.820;2023-02-21T22:11:09;34.17;;;30.33;;
46282;SDS011;32017;43.700;11.820;2023-02-21T22:13:30;30.98;;;27.58;;
46282;SDS011;32017;43.700;11.820;2023-02-21T22:15:54;37.70;;;28.38;;
46282;SDS011;32017;43.700;11.820;2023-02-21T22:18:15;31.63;;;28.48;;
46282;SDS011;32017;43.700;11.820;2023-02-21T22:20:36;31.50;;;28.17;;
46282;SDS011;32017;43.700;11.820;2023-02-21T22:22:56;38.88;;;24.35;;
46282;SDS011;32017;43.700;11.820;2023-02-21T22:25:18;28.63;;;25.73;;
46282;SDS011;32017;43.700;11.820;2023-02-21T22:27:39;29.05;;;25.85;;
46282;SDS011;32017;43.700;11.820;2023-02-21T22:29:59;29.38;;;26.35;;
46282;SDS011;32017;43.700;11.820;2023-02-21T22:32:19;28.83;;;25.77;;
46282;SDS011;32017;43.700;11.820;2023-02-21T22:34:39;26.75;;;23.42;;
46282;SDS011;32017;43.700;11.820;2023-02-21T22:36:59;26.17;;;23.45;;
46282;SDS011;32017;43.700;11.820;2023-02-21T22:39:19;32.70;;;28.13;;
46282;SDS011;32017;43.700;11.820;2023-02-21T22:41:40;30.30;;;27.27;;
46282;SDS011;32017;43.700;11.820;2023-02-21T22:44:02;31.25;;;28.05;;
46282;SDS011;32017;43.700;11.820;2023-02-21T22:46:22;32.38;;;29.00;;
46282;SDS011;32017;43.700;11.820;2023-02-21T22:48:44;31.48;;;27.70;;
46282;SDS011;32017;43.700;11.820;2023-02-21T22:51:05;33.22;;;28.80;;
46282;SDS011;32017;43.700;11.820;2023-02-21T22:53:26;43.35;;;34.00;;
46282;SDS011;32017;43.700;11.820;2023-02-21T22:55:47;41.63;;;32.33;;
46282;SDS011;32017;43.700;11.820;2023-02-21T22:58:11;39.15;;;33.17;;
46282;SDS011;32017;43.700;11.820;2023-02-21T23:00:32;39.33;;;30.58;;
46282;SDS011;32017;43.700;11.820;2023-02-21T23:02:53;34.97;;;30.00;;
46282;SDS011;32017;43.700;11.820;2023-02-21T23:05:14;48.47;;;35.95;;
46282;SDS011;32017;43.700;11.820;2023-02-21T23:07:37;52.15;;;40.45;;
46282;SDS011;32017;43.700;11.820;2023-02-21T23:09:57;48.78;;;38.50;;
46282;SDS011;32017;43.700;11.820;2023-02-21T23:16:02;30.40;;;27.35;;
46282;SDS011;32017;43.700;11.820;2023-02-21T23:18:23;39.30;;;30.40;;
46282;SDS011;32017;43.700;11.820;2023-02-21T23:20:54;43.92;;;37.03;;
46282;SDS011;32017;43.700;11.820;2023-02-21T23:23:15;39.45;;;34.22;;
46282;SDS011;32017;43.700;11.820;2023-02-21T23:25:35;52.97;;;37.13;;
46282;SDS011;32017;43.700;11.820;2023-02-21T23:27:55;54.88;;;40.17;;
46282;SDS011;32017;43.700;11.820;2023-02-21T23:30:16;52.83;;;37.78;;
46282;SDS011;32017;43.700;11.820;2023-02-21T23:32:39;47.72;;;35.78;;
46282;SDS011;32017;43.700;11.820;2023-02-21T23:34:59;42.33;;;33.58;;
46282;SDS011;32017;43.700;11.820;2023-02-21T23:37:20;40.25;;;31.08;;
46282;SDS011;32017;43.700;11.820;2023-02-21T23:39:40;32.55;;;29.17;;
46282;SDS011;32017;43.700;11.820;2023-02-21T23:42:00;30.25;;;27.17;;
46282;SDS011;32017;43.700;11.820;2023-02-21T23:48:10;28.30;;;25.42;;
46282;SDS011;32017;43.700;11.820;2023-02-21T23:50:34;29.27;;;26.27;;
46282;SDS011;32017;43.700;11.820;2023-02-21T23:52:56;26.92;;;24.35;;
46282;SDS011;32017;43.700;11.820;2023-02-21T23:55:20;28.60;;;25.65;;
46282;SDS011;32017;43.700;11.820;2023-02-21T23:57:46;30.20;;;27.13;;
